sensor_id;sensor_type;location;lat;lon;timestamp;pressure;altitude;pressure_sealevel;temperature;humidity
50734;BME280;36701;51.798;19.474;2022-12-29T00:00:03;98566.50;;;5.28;100.00
50734;BME280;36701;51.798;19.474;2022-12-29T00:02:58;98566.69;;;5.15;100.00
50734;BME280;36701;51.798;19.474;2022-12-29T00:05:24;98564.81;;;5.15;100.00
50734;BME280;36701;51.798;19.474;2022-12-29T00:07:51;98561.31;;;5.33;100.00
50734;BME280;36701;51.798;19.474;2022-12-29T00:10:17;98573.59;;;5.34;100.00
50734;BME280;36701;51.798;19.474;2022-12-29T00:12:43;98572.16;;;5.20;100.00
50734;BME280;36701;51.798;19.474;2022-12-29T00:15:28;98569.00;;;4.93;100.00
50734;BME280;36701;51.798;19.474;2022-12-29T00:18:03;98578.56;;;5.00;100.00
50734;BME280;36701;51.798;19.474;2022-12-29T00:20:32;98567.56;;;5.27;100.00
50734;BME280;36701;51.798;19.474;2022-12-29T00:23:17;98562.34;;;5.32;100.00
50734;BME280;36701;51.798;19.474;2022-12-29T00:26:03;98555.69;;;5.23;100.00
50734;BME280;36701;51.798;19.474;2022-12-29T00:28:50;98572.22;;;5.32;100.00
50734;BME280;36701;51.798;19.474;2022-12-29T00:31:34;98567.44;;;5.22;100.00
50734;BME280;36701;51.798;19.474;2022-12-29T00:34:20;98567.25;;;4.86;100.00
50734;BME280;36701;51.798;19.474;2022-12-29T00:37:04;98565.81;;;5.02;100.00
50734;BME280;36701;51.798;19.474;2022-12-29T00:39:33;98561.47;;;4.89;100.00
50734;BME280;36701;51.798;19.474;2022-12-29T00:42:18;98555.59;;;4.99;100.00
50734;BME280;36701;51.798;19.474;2022-12-29T00:45:05;98543.66;;;5.32;100.00
50734;BME280;36701;51.798;19.474;2022-12-29T00:47:31;98555.75;;;4.86;100.00
50734;BME280;36701;51.798;19.474;2022-12-29T00:50:04;98533.34;;;5.05;100.00
50734;BME280;36701;51.798;19.474;2022-12-29T00:52:30;98542.12;;;4.94;100.00
50734;BME280;36701;51.798;19.474;2022-12-29T00:54:56;98537.75;;;4.81;100.00
50734;BME280;36701;51.798;19.474;2022-12-29T00:57:22;98527.75;;;4.95;100.00
50734;BME280;36701;51.798;19.474;2022-12-29T00:59:49;98532.34;;;4.88;100.00
50734;BME280;36701;51.798;19.474;2022-12-29T03:07:37;98427.84;;;5.33;100.00
50734;BME280;36701;51.798;19.474;2022-12-29T03:10:29;98422.16;;;5.41;100.00
50734;BME280;36701;51.798;19.474;2022-12-29T03:15:54;98413.19;;;5.24;100.00
50734;BME280;36701;51.798;19.474;2022-12-29T03:18:34;98413.75;;;5.14;100.00
50734;BME280;36701;51.798;19.474;2022-12-29T03:21:15;98409.81;;;5.17;100.00
50734;BME280;36701;51.798;19.474;2022-12-29T03:23:43;98419.47;;;5.41;100.00
50734;BME280;36701;51.798;19.474;2022-12-29T03:26:14;98411.12;;;5.50;100.00
50734;BME280;36701;51.798;19.474;2022-12-29T03:28:43;98412.00;;;5.20;100.00
50734;BME280;36701;51.798;19.474;2022-12-29T03:31:15;98416.31;;;5.33;100.00
50734;BME280;36701;51.798;19.474;2022-12-29T03:33:43;98414.34;;;5.16;100.00
50734;BME280;36701;51.798;19.474;2022-12-29T03:36:12;98413.88;;;5.31;100.00
50734;BME280;36701;51.798;19.474;2022-12-29T03:38:49;98415.75;;;5.42;100.00
50734;BME280;36701;51.798;19.474;2022-12-29T03:41:18;98412.97;;;5.37;100.00
50734;BME280;36701;51.798;19.474;2022-12-29T03:43:46;98408.34;;;5.44;100.00
50734;BME280;36701;51.798;19.474;2022-12-29T03:46:12;98399.97;;;5.53;100.00
50734;BME280;36701;51.798;19.474;2022-12-29T03:48:40;98391.50;;;5.56;100.00
50734;BME280;36701;51.798;19.474;2022-12-29T03:51:06;98399.50;;;5.44;100.00
50734;BME280;36701;51.798;19.474;2022-12-29T03:53:32;98405.97;;;5.13;100.00
50734;BME280;36701;51.798;19.474;2022-12-29T03:56:00;98398.94;;;5.30;100.00
50734;BME280;36701;51.798;19.474;2022-12-29T03:58:26;98389.06;;;5.42;100.00
50734;BME280;36701;51.798;19.474;2022-12-29T04:00:53;98389.06;;;5.42;100.00
50734;BME280;36701;51.798;19.474;2022-12-29T04:03:20;98389.25;;;5.05;100.00
50734;BME280;36701;51.798;19.474;2022-12-29T04:05:46;98380.94;;;5.25;100.00
50734;BME280;36701;51.798;19.474;2022-12-29T04:08:12;98374.25;;;4.93;100.00
50734;BME280;36701;51.798;19.474;2022-12-29T04:10:39;98361.66;;;5.12;100.00
50734;BME280;36701;51.798;19.474;2022-12-29T04:13:05;98350.78;;;5.25;100.00
50734;BME280;36701;51.798;19.474;2022-12-29T04:15:31;98360.28;;;5.21;100.00
50734;BME280;36701;51.798;19.474;2022-12-29T04:17:58;98357.97;;;5.36;100.00
50734;BME280;36701;51.798;19.474;2022-12-29T04:20:24;98357.28;;;5.41;100.00
50734;BME280;36701;51.798;19.474;2022-12-29T04:23:09;98354.22;;;5.14;100.00
50734;BME280;36701;51.798;19.474;2022-12-29T04:25:37;98361.66;;;5.35;100.00
50734;BME280;36701;51.798;19.474;2022-12-29T04:28:03;98357.59;;;5.09;100.00
50734;BME280;36701;51.798;19.474;2022-12-29T04:30:30;98349.34;;;5.34;100.00
50734;BME280;36701;51.798;19.474;2022-12-29T04:32:57;98363.03;;;5.02;100.00
50734;BME280;36701;51.798;19.474;2022-12-29T04:35:23;98349.38;;;5.11;100.00
50734;BME280;36701;51.798;19.474;2022-12-29T04:37:50;98355.41;;;5.41;100.00
50734;BME280;36701;51.798;19.474;2022-12-29T04:40:16;98345.88;;;5.22;100.00
50734;BME280;36701;51.798;19.474;2022-12-29T04:42:42;98344.38;;;5.14;100.00
50734;BME280;36701;51.798;19.474;2022-12-29T04:45:09;98339.59;;;5.28;100.00
50734;BME280;36701;51.798;19.474;2022-12-29T04:47:35;98341.69;;;5.26;100.00
50734;BME280;36701;51.798;19.474;2022-12-29T04:50:02;98344.03;;;5.22;100.00
50734;BME280;36701;51.798;19.474;2022-12-29T04:52:29;98339.72;;;5.21;100.00
50734;BME280;36701;51.798;19.474;2022-12-29T04:54:56;98337.06;;;5.33;100.00
50734;BME280;36701;51.798;19.474;2022-12-29T04:57:22;98341.47;;;5.27;100.00
50734;BME280;36701;51.798;19.474;2022-12-29T04:59:51;98328.91;;;5.28;100.00
50734;BME280;36701;51.798;19.474;2022-12-29T05:02:17;98338.22;;;5.37;100.00
50734;BME280;36701;51.798;19.474;2022-12-29T05:04:44;98345.53;;;5.42;100.00
50734;BME280;36701;51.798;19.474;2022-12-29T05:07:12;98329.88;;;5.34;100.00
50734;BME280;36701;51.798;19.474;2022-12-29T05:09:38;98345.53;;;5.54;100.00
50734;BME280;36701;51.798;19.474;2022-12-29T05:12:04;98348.78;;;5.56;100.00
50734;BME280;36701;51.798;19.474;2022-12-29T05:14:31;98324.87;;;5.49;100.00
50734;BME280;36701;51.798;19.474;2022-12-29T05:16:57;98321.91;;;5.74;100.00
50734;BME280;36701;51.798;19.474;2022-12-29T05:19:24;98322.19;;;5.61;100.00
50734;BME280;36701;51.798;19.474;2022-12-29T05:21:51;98319.75;;;5.48;100.00
50734;BME280;36701;51.798;19.474;2022-12-29T05:24:18;98317.88;;;5.60;100.00
50734;BME280;36701;51.798;19.474;2022-12-29T05:26:44;98309.22;;;5.41;100.00
50734;BME280;36701;51.798;19.474;2022-12-29T05:29:10;98312.22;;;5.44;100.00
50734;BME280;36701;51.798;19.474;2022-12-29T05:31:36;98323.81;;;5.62;100.00
50734;BME280;36701;51.798;19.474;2022-12-29T05:34:04;98321.25;;;5.67;100.00
50734;BME280;36701;51.798;19.474;2022-12-29T05:36:30;98324.50;;;5.45;100.00
50734;BME280;36701;51.798;19.474;2022-12-29T05:38:58;98330.75;;;5.63;100.00
50734;BME280;36701;51.798;19.474;2022-12-29T05:41:24;98334.50;;;5.62;100.00
50734;BME280;36701;51.798;19.474;2022-12-29T05:43:56;98347.50;;;5.46;100.00
50734;BME280;36701;51.798;19.474;2022-12-29T05:46:22;98342.34;;;5.80;100.00
50734;BME280;36701;51.798;19.474;2022-12-29T05:48:49;98353.28;;;5.67;100.00
50734;BME280;36701;51.798;19.474;2022-12-29T05:51:16;98348.63;;;5.74;100.00
50734;BME280;36701;51.798;19.474;2022-12-29T05:53:43;98350.75;;;5.49;100.00
50734;BME280;36701;51.798;19.474;2022-12-29T05:56:09;98348.75;;;5.68;100.00
50734;BME280;36701;51.798;19.474;2022-12-29T05:58:36;98336.00;;;5.22;100.00
50734;BME280;36701;51.798;19.474;2022-12-29T06:01:02;98334.97;;;5.59;100.00
50734;BME280;36701;51.798;19.474;2022-12-29T06:03:29;98350.06;;;5.41;100.00
50734;BME280;36701;51.798;19.474;2022-12-29T06:05:55;98332.19;;;5.30;100.00
50734;BME280;36701;51.798;19.474;2022-12-29T06:08:21;98354.94;;;5.21;100.00
50734;BME280;36701;51.798;19.474;2022-12-29T06:10:47;98350.06;;;5.18;100.00
50734;BME280;36701;51.798;19.474;2022-12-29T06:13:14;98343.19;;;5.45;100.00
50734;BME280;36701;51.798;19.474;2022-12-29T06:15:40;98342.13;;;5.70;100.00
50734;BME280;36701;51.798;19.474;2022-12-29T06:18:13;98333.59;;;5.44;100.00
50734;BME280;36701;51.798;19.474;2022-12-29T06:20:39;98341.22;;;5.53;100.00
50734;BME280;36701;51.798;19.474;2022-12-29T06:23:05;98331.94;;;5.20;100.00
50734;BME280;36701;51.798;19.474;2022-12-29T06:25:32;98335.19;;;5.45;100.00
50734;BME280;36701;51.798;19.474;2022-12-29T06:27:59;98327.31;;;5.51;100.00
50734;BME280;36701;51.798;19.474;2022-12-29T06:30:25;98330.31;;;5.42;100.00
50734;BME280;36701;51.798;19.474;2022-12-29T06:32:52;98311.97;;;5.58;100.00
50734;BME280;36701;51.798;19.474;2022-12-29T06:35:19;98308.16;;;5.42;100.00
50734;BME280;36701;51.798;19.474;2022-12-29T06:37:45;98319.06;;;5.17;100.00
50734;BME280;36701;51.798;19.474;2022-12-29T06:40:11;98307.00;;;5.38;100.00
50734;BME280;36701;51.798;19.474;2022-12-29T06:42:39;98321.50;;;5.54;100.00
50734;BME280;36701;51.798;19.474;2022-12-29T06:45:06;98326.59;;;5.20;100.00
50734;BME280;36701;51.798;19.474;2022-12-29T06:47:34;98313.16;;;5.38;100.00
50734;BME280;36701;51.798;19.474;2022-12-29T06:50:00;98306.19;;;5.49;100.00
50734;BME280;36701;51.798;19.474;2022-12-29T06:52:27;98320.81;;;5.23;100.00
50734;BME280;36701;51.798;19.474;2022-12-29T06:54:54;98307.81;;;5.38;100.00
50734;BME280;36701;51.798;19.474;2022-12-29T06:57:21;98328.34;;;5.26;100.00
50734;BME280;36701;51.798;19.474;2022-12-29T06:59:47;98315.19;;;5.60;100.00
50734;BME280;36701;51.798;19.474;2022-12-29T07:02:14;98314.06;;;5.56;100.00
50734;BME280;36701;51.798;19.474;2022-12-29T07:04:40;98317.16;;;5.64;100.00
50734;BME280;36701;51.798;19.474;2022-12-29T07:07:06;98313.81;;;5.45;100.00
50734;BME280;36701;51.798;19.474;2022-12-29T07:09:33;98321.03;;;5.45;100.00
50734;BME280;36701;51.798;19.474;2022-12-29T07:11:59;98324.97;;;5.42;100.00
50734;BME280;36701;51.798;19.474;2022-12-29T07:14:31;98319.50;;;5.61;100.00
50734;BME280;36701;51.798;19.474;2022-12-29T07:17:04;98322.88;;;5.68;100.00
50734;BME280;36701;51.798;19.474;2022-12-29T07:19:32;98327.38;;;5.79;100.00
50734;BME280;36701;51.798;19.474;2022-12-29T07:21:58;98341.22;;;5.53;100.00
50734;BME280;36701;51.798;19.474;2022-12-29T07:24:26;98330.75;;;5.63;100.00
50734;BME280;36701;51.798;19.474;2022-12-29T07:26:59;98327.88;;;5.53;100.00
50734;BME280;36701;51.798;19.474;2022-12-29T07:29:30;98328.91;;;5.52;100.00
50734;BME280;36701;51.798;19.474;2022-12-29T07:31:57;98310.75;;;5.77;100.00
50734;BME280;36701;51.798;19.474;2022-12-29T07:34:23;98315.34;;;5.65;100.00
50734;BME280;36701;51.798;19.474;2022-12-29T07:36:55;98317.31;;;5.46;100.00
50734;BME280;36701;51.798;19.474;2022-12-29T07:39:21;98322.41;;;5.71;100.00
50734;BME280;36701;51.798;19.474;2022-12-29T07:41:47;98327.38;;;5.68;100.00
50734;BME280;36701;51.798;19.474;2022-12-29T07:44:16;98325.47;;;5.92;100.00
50734;BME280;36701;51.798;19.474;2022-12-29T07:46:43;98319.25;;;5.74;100.00
50734;BME280;36701;51.798;19.474;2022-12-29T07:49:10;98326.44;;;5.86;100.00
50734;BME280;36701;51.798;19.474;2022-12-29T07:51:36;98324.44;;;5.93;100.00
50734;BME280;36701;51.798;19.474;2022-12-29T07:54:02;98318.31;;;5.80;100.00
50734;BME280;36701;51.798;19.474;2022-12-29T07:56:29;98323.53;;;5.75;100.00
50734;BME280;36701;51.798;19.474;2022-12-29T07:58:55;98325.63;;;5.97;100.00
50734;BME280;36701;51.798;19.474;2022-12-29T08:01:21;98325.50;;;5.80;100.00
50734;BME280;36701;51.798;19.474;2022-12-29T08:03:49;98322.59;;;5.81;100.00
50734;BME280;36701;51.798;19.474;2022-12-29T08:06:15;98327.94;;;5.81;100.00
50734;BME280;36701;51.798;19.474;2022-12-29T08:08:41;98265.66;;;5.40;100.00
50734;BME280;36701;51.798;19.474;2022-12-29T08:11:07;98322.69;;;5.87;100.00
50734;BME280;36701;51.798;19.474;2022-12-29T08:13:33;98324.25;;;5.82;100.00
50734;BME280;36701;51.798;19.474;2022-12-29T08:16:00;98322.81;;;5.92;100.00
50734;BME280;36701;51.798;19.474;2022-12-29T08:18:26;98321.66;;;5.88;100.00
50734;BME280;36701;51.798;19.474;2022-12-29T08:20:52;98321.91;;;5.86;100.00
50734;BME280;36701;51.798;19.474;2022-12-29T08:23:18;98327.16;;;6.22;100.00
50734;BME280;36701;51.798;19.474;2022-12-29T08:25:45;98324.69;;;6.03;100.00
50734;BME280;36701;51.798;19.474;2022-12-29T08:28:11;98319.09;;;5.93;100.00
50734;BME280;36701;51.798;19.474;2022-12-29T08:30:37;98327.00;;;5.88;100.00
50734;BME280;36701;51.798;19.474;2022-12-29T08:33:04;98332.81;;;5.96;100.00
50734;BME280;36701;51.798;19.474;2022-12-29T08:35:30;98317.22;;;6.05;100.00
50734;BME280;36701;51.798;19.474;2022-12-29T08:37:56;98320.94;;;6.04;100.00
50734;BME280;36701;51.798;19.474;2022-12-29T08:40:28;98308.34;;;6.16;100.00
50734;BME280;36701;51.798;19.474;2022-12-29T08:42:55;98327.66;;;5.95;100.00
50734;BME280;36701;51.798;19.474;2022-12-29T08:45:23;98329.53;;;6.06;100.00
50734;BME280;36701;51.798;19.474;2022-12-29T08:47:56;98322.75;;;6.15;100.00
50734;BME280;36701;51.798;19.474;2022-12-29T08:50:23;98332.59;;;6.27;100.00
50734;BME280;36701;51.798;19.474;2022-12-29T08:52:49;98338.13;;;6.08;100.00
50734;BME280;36701;51.798;19.474;2022-12-29T08:55:15;98344.84;;;6.23;100.00
50734;BME280;36701;51.798;19.474;2022-12-29T08:57:41;98346.63;;;6.05;100.00
50734;BME280;36701;51.798;19.474;2022-12-29T09:00:09;98326.34;;;6.21;100.00
50734;BME280;36701;51.798;19.474;2022-12-29T09:02:36;98356.00;;;6.20;100.00
50734;BME280;36701;51.798;19.474;2022-12-29T09:05:02;98337.06;;;6.21;100.00
50734;BME280;36701;51.798;19.474;2022-12-29T09:07:35;98339.87;;;6.43;100.00
50734;BME280;36701;51.798;19.474;2022-12-29T09:10:02;98317.63;;;6.26;100.00
50734;BME280;36701;51.798;19.474;2022-12-29T09:12:28;98313.12;;;6.43;100.00
50734;BME280;36701;51.798;19.474;2022-12-29T09:15:00;98309.69;;;6.31;100.00
50734;BME280;36701;51.798;19.474;2022-12-29T09:17:27;98302.06;;;6.40;100.00
50734;BME280;36701;51.798;19.474;2022-12-29T09:20:15;98306.47;;;6.29;100.00
50734;BME280;36701;51.798;19.474;2022-12-29T09:22:42;98315.41;;;6.51;100.00
50734;BME280;36701;51.798;19.474;2022-12-29T09:25:12;98313.78;;;6.50;100.00
50734;BME280;36701;51.798;19.474;2022-12-29T09:27:43;98311.84;;;6.63;100.00
50734;BME280;36701;51.798;19.474;2022-12-29T09:30:15;98319.00;;;6.74;100.00
50734;BME280;36701;51.798;19.474;2022-12-29T09:32:45;98328.78;;;6.68;100.00
50734;BME280;36701;51.798;19.474;2022-12-29T09:35:17;98316.84;;;6.42;100.00
50734;BME280;36701;51.798;19.474;2022-12-29T09:37:43;98314.28;;;6.64;100.00
50734;BME280;36701;51.798;19.474;2022-12-29T09:40:24;98319.66;;;6.81;100.00
50734;BME280;36701;51.798;19.474;2022-12-29T09:42:57;98317.22;;;6.63;100.00
50734;BME280;36701;51.798;19.474;2022-12-29T09:45:43;98308.28;;;7.08;100.00
50734;BME280;36701;51.798;19.474;2022-12-29T09:48:46;98304.50;;;7.04;100.00
50734;BME280;36701;51.798;19.474;2022-12-29T09:51:17;98305.41;;;6.93;100.00
50734;BME280;36701;51.798;19.474;2022-12-29T09:53:49;98301.09;;;7.08;100.00
50734;BME280;36701;51.798;19.474;2022-12-29T09:56:20;98296.97;;;7.01;100.00
50734;BME280;36701;51.798;19.474;2022-12-29T09:58:52;98292.88;;;6.98;100.00
50734;BME280;36701;51.798;19.474;2022-12-29T10:03:59;98285.34;;;7.12;100.00
50734;BME280;36701;51.798;19.474;2022-12-29T10:20:12;98294.84;;;7.03;100.00
50734;BME280;36701;51.798;19.474;2022-12-29T10:25:24;98278.87;;;7.47;100.00
50734;BME280;36701;51.798;19.474;2022-12-29T10:27:51;98287.66;;;7.25;100.00
50734;BME280;36701;51.798;19.474;2022-12-29T10:30:20;98274.78;;;7.61;100.00
50734;BME280;36701;51.798;19.474;2022-12-29T10:37:52;98293.59;;;7.67;100.00
50734;BME280;36701;51.798;19.474;2022-12-29T10:40:27;98282.22;;;7.59;100.00
50734;BME280;36701;51.798;19.474;2022-12-29T10:42:57;98291.06;;;7.38;100.00
50734;BME280;36701;51.798;19.474;2022-12-29T10:45:26;98271.87;;;7.46;100.00
50734;BME280;36701;51.798;19.474;2022-12-29T10:47:56;98278.78;;;7.20;100.00
50734;BME280;36701;51.798;19.474;2022-12-29T10:50:25;98289.41;;;7.54;100.00
50734;BME280;36701;51.798;19.474;2022-12-29T10:52:59;98271.56;;;7.42;100.00
50734;BME280;36701;51.798;19.474;2022-12-29T10:55:32;98280.13;;;7.61;100.00
50734;BME280;36701;51.798;19.474;2022-12-29T10:58:00;98279.84;;;7.41;100.00
50734;BME280;36701;51.798;19.474;2022-12-29T11:00:31;98274.88;;;7.72;100.00
50734;BME280;36701;51.798;19.474;2022-12-29T11:08:19;98273.28;;;7.71;100.00
50734;BME280;36701;51.798;19.474;2022-12-29T11:10:48;98273.69;;;7.85;100.00
50734;BME280;36701;51.798;19.474;2022-12-29T11:13:26;98287.22;;;7.73;100.00
50734;BME280;36701;51.798;19.474;2022-12-29T11:15:59;98268.91;;;7.64;100.00
50734;BME280;36701;51.798;19.474;2022-12-29T11:18:28;98266.91;;;7.77;100.00
50734;BME280;36701;51.798;19.474;2022-12-29T11:21:00;98265.31;;;7.76;100.00
50734;BME280;36701;51.798;19.474;2022-12-29T11:28:41;98262.03;;;8.23;100.00
50734;BME280;36701;51.798;19.474;2022-12-29T11:31:08;98252.78;;;8.09;100.00
50734;BME280;36701;51.798;19.474;2022-12-29T11:33:36;98250.47;;;8.45;100.00
50734;BME280;36701;51.798;19.474;2022-12-29T11:36:06;98241.25;;;8.35;100.00
50734;BME280;36701;51.798;19.474;2022-12-29T11:38:34;98247.72;;;8.40;100.00
50734;BME280;36701;51.798;19.474;2022-12-29T11:41:02;98240.34;;;8.52;100.00
50734;BME280;36701;51.798;19.474;2022-12-29T11:46:02;98253.09;;;8.40;100.00
50734;BME280;36701;51.798;19.474;2022-12-29T11:48:33;98245.31;;;8.38;100.00
50734;BME280;36701;51.798;19.474;2022-12-29T11:51:04;98243.59;;;8.54;100.00
50734;BME280;36701;51.798;19.474;2022-12-29T11:56:04;98253.50;;;8.26;100.00
50734;BME280;36701;51.798;19.474;2022-12-29T11:58:32;98250.47;;;8.17;100.00
50734;BME280;36701;51.798;19.474;2022-12-29T12:03:47;98236.50;;;8.43;100.00
50734;BME280;36701;51.798;19.474;2022-12-29T12:06:19;98226.41;;;8.55;100.00
50734;BME280;36701;51.798;19.474;2022-12-29T12:08:48;98250.06;;;8.58;100.00
50734;BME280;36701;51.798;19.474;2022-12-29T12:11:31;98235.06;;;8.62;100.00
50734;BME280;36701;51.798;19.474;2022-12-29T12:14:20;98232.41;;;8.67;100.00
50734;BME280;36701;51.798;19.474;2022-12-29T12:16:53;98229.09;;;8.55;100.00
50734;BME280;36701;51.798;19.474;2022-12-29T12:21:51;98231.22;;;8.26;100.00
50734;BME280;36701;51.798;19.474;2022-12-29T12:26:56;98226.88;;;8.47;100.00
50734;BME280;36701;51.798;19.474;2022-12-29T12:34:38;98231.75;;;8.50;100.00
50734;BME280;36701;51.798;19.474;2022-12-29T12:39:54;98221.44;;;8.69;100.00
50734;BME280;36701;51.798;19.474;2022-12-29T12:51:01;98178.59;;;8.47;100.00
50734;BME280;36701;51.798;19.474;2022-12-29T13:06:11;98234.09;;;8.79;100.00
50734;BME280;36701;51.798;19.474;2022-12-29T13:18:48;98230.53;;;9.05;100.00
50734;BME280;36701;51.798;19.474;2022-12-29T13:34:39;98227.47;;;9.29;100.00
50734;BME280;36701;51.798;19.474;2022-12-29T13:37:18;98224.63;;;9.03;100.00
50734;BME280;36701;51.798;19.474;2022-12-29T13:40:10;98222.00;;;9.19;100.00
50734;BME280;36701;51.798;19.474;2022-12-29T13:42:35;98235.28;;;9.36;100.00
50734;BME280;36701;51.798;19.474;2022-12-29T13:45:03;98224.03;;;9.44;100.00
50734;BME280;36701;51.798;19.474;2022-12-29T13:47:36;98223.13;;;9.23;100.00
50734;BME280;36701;51.798;19.474;2022-12-29T13:50:05;98221.88;;;8.98;100.00
50734;BME280;36701;51.798;19.474;2022-12-29T13:52:34;98229.62;;;9.32;100.00
50734;BME280;36701;51.798;19.474;2022-12-29T13:57:35;98241.06;;;9.17;100.00
50734;BME280;36701;51.798;19.474;2022-12-29T14:00:11;98240.37;;;9.37;100.00
50734;BME280;36701;51.798;19.474;2022-12-29T14:07:47;98251.62;;;9.24;100.00
50734;BME280;36701;51.798;19.474;2022-12-29T14:11:15;98251.75;;;9.50;100.00
50734;BME280;36701;51.798;19.474;2022-12-29T14:13:19;98259.69;;;9.29;100.00
50734;BME280;36701;51.798;19.474;2022-12-29T14:16:04;98255.47;;;9.43;100.00
50734;BME280;36701;51.798;19.474;2022-12-29T14:18:32;98252.66;;;9.23;100.00
50734;BME280;36701;51.798;19.474;2022-12-29T14:21:00;98253.81;;;9.32;100.00
50734;BME280;36701;51.798;19.474;2022-12-29T14:23:43;98249.56;;;9.47;100.00
50734;BME280;36701;51.798;19.474;2022-12-29T14:26:15;98252.25;;;9.41;100.00
50734;BME280;36701;51.798;19.474;2022-12-29T14:28:46;98247.03;;;9.24;100.00
50734;BME280;36701;51.798;19.474;2022-12-29T14:33:40;98247.31;;;9.28;100.00
50734;BME280;36701;51.798;19.474;2022-12-29T14:38:45;98253.25;;;8.87;100.00
50734;BME280;36701;51.798;19.474;2022-12-29T14:41:16;98256.63;;;9.10;100.00
50734;BME280;36701;51.798;19.474;2022-12-29T14:43:51;98258.50;;;9.09;100.00
50734;BME280;36701;51.798;19.474;2022-12-29T14:46:19;98258.97;;;9.01;100.00
50734;BME280;36701;51.798;19.474;2022-12-29T14:48:45;98249.31;;;9.00;100.00
50734;BME280;36701;51.798;19.474;2022-12-29T14:51:17;98256.03;;;9.03;100.00
50734;BME280;36701;51.798;19.474;2022-12-29T14:53:49;98260.53;;;8.92;100.00
50734;BME280;36701;51.798;19.474;2022-12-29T14:56:16;98260.44;;;8.82;100.00
50734;BME280;36701;51.798;19.474;2022-12-29T14:58:44;98265.81;;;8.82;100.00
50734;BME280;36701;51.798;19.474;2022-12-29T15:01:20;98273.44;;;8.95;100.00
50734;BME280;36701;51.798;19.474;2022-12-29T15:03:48;98269.09;;;8.89;100.00
50734;BME280;36701;51.798;19.474;2022-12-29T15:06:18;98271.72;;;8.84;100.00
50734;BME280;36701;51.798;19.474;2022-12-29T15:08:52;98263.25;;;8.97;100.00
50734;BME280;36701;51.798;19.474;2022-12-29T15:11:26;98261.03;;;8.89;100.00
50734;BME280;36701;51.798;19.474;2022-12-29T15:13:57;98271.91;;;8.72;100.00
50734;BME280;36701;51.798;19.474;2022-12-29T15:16:33;98253.03;;;8.94;100.00
50734;BME280;36701;51.798;19.474;2022-12-29T15:19:02;98266.62;;;9.20;100.00
50734;BME280;36701;51.798;19.474;2022-12-29T15:21:32;98254.72;;;9.05;100.00
50734;BME280;36701;51.798;19.474;2022-12-29T15:23:59;98261.97;;;9.05;100.00
50734;BME280;36701;51.798;19.474;2022-12-29T15:26:38;98262.44;;;8.97;100.00
50734;BME280;36701;51.798;19.474;2022-12-29T15:29:26;98264.00;;;8.87;100.00
50734;BME280;36701;51.798;19.474;2022-12-29T15:31:52;98256.94;;;8.76;100.00
50734;BME280;36701;51.798;19.474;2022-12-29T15:34:19;98265.56;;;8.83;100.00
50734;BME280;36701;51.798;19.474;2022-12-29T15:36:46;98259.88;;;8.75;100.00
50734;BME280;36701;51.798;19.474;2022-12-29T15:39:19;98268.91;;;8.63;100.00
50734;BME280;36701;51.798;19.474;2022-12-29T15:41:55;98264.13;;;8.70;100.00
50734;BME280;36701;51.798;19.474;2022-12-29T15:44:29;98261.63;;;8.96;100.00
50734;BME280;36701;51.798;19.474;2022-12-29T15:47:01;98265.44;;;9.05;100.00
50734;BME280;36701;51.798;19.474;2022-12-29T15:49:28;98265.47;;;9.11;100.00
50734;BME280;36701;51.798;19.474;2022-12-29T15:51:54;98260.78;;;8.58;100.00
50734;BME280;36701;51.798;19.474;2022-12-29T15:54:21;98260.44;;;8.82;100.00
50734;BME280;36701;51.798;19.474;2022-12-29T15:56:49;98267.34;;;8.72;100.00
50734;BME280;36701;51.798;19.474;2022-12-29T15:59:33;98259.38;;;8.83;100.00
50734;BME280;36701;51.798;19.474;2022-12-29T16:02:01;98264.78;;;8.88;100.00
50734;BME280;36701;51.798;19.474;2022-12-29T16:04:29;98278.06;;;8.72;100.00
50734;BME280;36701;51.798;19.474;2022-12-29T16:06:57;98269.72;;;9.01;100.00
50734;BME280;36701;51.798;19.474;2022-12-29T16:11:57;98268.06;;;8.95;100.00
50734;BME280;36701;51.798;19.474;2022-12-29T16:16:57;98277.28;;;8.72;100.00
50734;BME280;36701;51.798;19.474;2022-12-29T16:19:28;98278.25;;;8.93;100.00
50734;BME280;36701;51.798;19.474;2022-12-29T16:21:55;98278.81;;;8.95;100.00
50734;BME280;36701;51.798;19.474;2022-12-29T16:24:25;98272.84;;;8.88;100.00
50734;BME280;36701;51.798;19.474;2022-12-29T16:27:09;98280.00;;;8.77;100.00
50734;BME280;36701;51.798;19.474;2022-12-29T16:29:41;98274.88;;;8.76;100.00
50734;BME280;36701;51.798;19.474;2022-12-29T16:32:27;98287.09;;;8.61;100.00
50734;BME280;36701;51.798;19.474;2022-12-29T16:37:38;98286.72;;;8.75;100.00
50734;BME280;36701;51.798;19.474;2022-12-29T16:40:22;98282.75;;;8.55;100.00
50734;BME280;36701;51.798;19.474;2022-12-29T16:42:59;98287.31;;;8.54;100.00
50734;BME280;36701;51.798;19.474;2022-12-29T16:50:34;98279.63;;;8.63;100.00
50734;BME280;36701;51.798;19.474;2022-12-29T16:53:01;98276.88;;;8.58;100.00
50734;BME280;36701;51.798;19.474;2022-12-29T16:55:28;98293.78;;;8.31;100.00
50734;BME280;36701;51.798;19.474;2022-12-29T16:57:55;98292.09;;;8.47;100.00
50734;BME280;36701;51.798;19.474;2022-12-29T17:00:23;98289.97;;;8.49;100.00
50734;BME280;36701;51.798;19.474;2022-12-29T17:02:51;98293.28;;;8.34;100.00
50734;BME280;36701;51.798;19.474;2022-12-29T17:05:20;98292.41;;;8.51;100.00
50734;BME280;36701;51.798;19.474;2022-12-29T17:07:46;98298.66;;;8.34;100.00
50734;BME280;36701;51.798;19.474;2022-12-29T17:10:13;98292.41;;;8.51;100.00
50734;BME280;36701;51.798;19.474;2022-12-29T17:12:42;98297.78;;;8.29;100.00
50734;BME280;36701;51.798;19.474;2022-12-29T17:15:15;98289.88;;;8.17;100.00
50734;BME280;36701;51.798;19.474;2022-12-29T17:17:46;98299.03;;;8.21;100.00